Time;durP1;ratioP1;P1;durP2;ratioP2;P2;SDS_P1;SDS_P2;PMS_P1;PMS_P2;Temp;Humidity;BMP_temperature;BMP_pressure;BME280_temperature;BME280_humidity;BME280_pressure;Samples;Min_cycle;Max_cycle;Signal;HPM_P1;HPM_P2
2023/07/04 00:00:43;;;;;;;3.70;3.07;;;14.70;99.90;;;;;;485440;245;29715;-79
2023/07/04 00:02:45;;;;;;;3.77;2.80;;;14.70;99.90;;;;;;485452;245;28735;-79
2023/07/04 00:04:48;;;;;;;3.77;3.40;;;14.60;99.90;;;;;;485408;245;28762;-79
2023/07/04 00:06:47;;;;;;;3.90;3.40;;;14.60;99.90;;;;;;485331;245;28692;-80
2023/07/04 00:08:48;;;;;;;4.40;2.97;;;14.60;99.90;;;;;;485411;245;28759;-79
2023/07/04 00:10:53;;;;;;;2.93;2.73;;;14.60;99.90;;;;;;485413;245;28706;-79
2023/07/04 00:12:51;;;;;;;4.77;3.00;;;14.50;99.90;;;;;;485026;245;28813;-79
2023/07/04 00:14:52;;;;;;;4.07;3.27;;;14.50;99.90;;;;;;485448;245;28763;-80
2023/07/04 00:16:53;;;;;;;3.63;3.10;;;14.50;99.90;;;;;;485417;245;29075;-79
2023/07/04 00:18:54;;;;;;;3.43;3.10;;;14.50;99.90;;;;;;485459;245;28762;-80
2023/07/04 00:20:56;;;;;;;3.53;2.83;;;14.40;99.90;;;;;;485417;245;29273;-79
2023/07/04 00:22:59;;;;;;;3.70;3.30;;;14.40;99.90;;;;;;485421;245;29217;-79
2023/07/04 00:24:58;;;;;;;3.90;2.80;;;14.40;99.90;;;;;;485314;245;29160;-80
2023/07/04 00:27:00;;;;;;;2.87;2.67;;;14.30;99.90;;;;;;485453;245;29170;-80
2023/07/04 00:29:01;;;;;;;4.30;3.07;;;14.30;99.90;;;;;;485390;245;28766;-80
2023/07/04 00:31:02;;;;;;;3.73;3.00;;;14.20;99.90;;;;;;485180;245;28750;-80
2023/07/04 00:33:03;;;;;;;7.17;2.73;;;14.30;99.90;;;;;;485346;245;29106;-78
2023/07/04 00:35:05;;;;;;;4.13;2.70;;;14.30;99.90;;;;;;485377;245;28693;-80
2023/07/04 00:37:07;;;;;;;8.33;4.07;;;14.20;99.90;;;;;;485401;245;28782;-80
2023/07/04 00:39:07;;;;;;;3.60;3.30;;;14.20;99.90;;;;;;485373;245;28768;-79
2023/07/04 00:41:08;;;;;;;3.97;3.30;;;14.30;99.90;;;;;;485404;244;28772;-80
2023/07/04 00:43:11;;;;;;;3.93;2.97;;;14.30;99.90;;;;;;485412;245;28806;-80
2023/07/04 00:45:19;;;;;;;3.30;3.00;;;14.30;99.90;;;;;;485304;245;28699;-79
2023/07/04 00:47:15;;;;;;;8.13;3.40;;;14.20;99.90;;;;;;484977;245;29244;-79
2023/07/04 00:49:18;;;;;;;3.00;2.80;;;14.20;99.90;;;;;;485281;245;29560;-80
2023/07/04 00:51:21;;;;;;;3.30;3.00;;;14.10;99.90;;;;;;485338;245;28762;-79
2023/07/04 00:53:18;;;;;;;12.40;3.53;;;14.10;99.90;;;;;;485201;245;28711;-79
2023/07/04 00:55:20;;;;;;;3.77;2.73;;;14.00;99.90;;;;;;485404;245;28752;-80
2023/07/04 00:57:21;;;;;;;3.30;3.00;;;14.00;99.90;;;;;;485420;245;28430;-80
2023/07/04 00:59:23;;;;;;;7.73;3.23;;;14.00;99.90;;;;;;485423;245;28731;-80
2023/07/04 01:01:23;;;;;;;9.33;4.67;;;13.90;99.90;;;;;;485464;245;28756;-80
2023/07/04 01:03:25;;;;;;;4.13;3.63;;;13.80;99.90;;;;;;485436;245;28812;-80
2023/07/04 01:05:26;;;;;;;7.70;3.50;;;13.80;99.90;;;;;;485400;245;28755;-79
2023/07/04 01:07:27;;;;;;;5.83;3.07;;;13.80;99.90;;;;;;485418;245;28473;-80
2023/07/04 01:09:28;;;;;;;5.63;3.60;;;13.70;99.90;;;;;;485449;245;29287;-80
2023/07/04 01:11:30;;;;;;;3.17;2.87;;;13.70;99.90;;;;;;485436;245;29309;-80
2023/07/04 01:13:34;;;;;;;3.60;3.27;;;13.60;99.90;;;;;;485217;245;29181;-80
2023/07/04 01:15:32;;;;;;;3.37;3.07;;;13.60;99.90;;;;;;485112;244;28779;-79
2023/07/04 01:17:33;;;;;;;5.87;3.50;;;13.50;99.90;;;;;;485421;245;28726;-80
2023/07/04 01:19:35;;;;;;;3.20;2.80;;;13.50;99.90;;;;;;485380;241;28743;-80
2023/07/04 01:21:36;;;;;;;3.40;3.10;;;13.60;99.90;;;;;;485438;245;28412;-79
2023/07/04 01:23:37;;;;;;;5.47;3.63;;;13.60;99.90;;;;;;485419;245;28433;-79
2023/07/04 01:25:40;;;;;;;5.53;3.40;;;13.60;99.90;;;;;;485396;245;28763;-79
2023/07/04 01:27:40;;;;;;;4.07;3.20;;;13.50;99.90;;;;;;485284;245;28488;-79
2023/07/04 01:29:41;;;;;;;3.50;3.20;;;13.60;99.90;;;;;;485375;245;28728;-80
2023/07/04 01:31:43;;;;;;;3.60;3.30;;;13.50;99.90;;;;;;485420;245;28221;-79
2023/07/04 01:33:44;;;;;;;7.40;3.73;;;13.50;99.90;;;;;;485384;245;28919;-79
2023/07/04 01:35:45;;;;;;;6.00;4.60;;;13.50;99.90;;;;;;485365;245;29013;-80
2023/07/04 01:37:46;;;;;;;6.87;3.70;;;13.40;99.90;;;;;;485418;245;28865;-79
2023/07/04 01:39:47;;;;;;;4.03;3.40;;;13.40;99.90;;;;;;485393;245;29024;-80
2023/07/04 01:41:49;;;;;;;4.90;3.17;;;13.40;99.90;;;;;;485397;245;28450;-80
2023/07/04 01:43:53;;;;;;;5.83;3.77;;;13.40;99.90;;;;;;485372;245;28687;-79
2023/07/04 01:45:54;;;;;;;4.53;3.90;;;13.40;99.90;;;;;;485453;245;29010;-80
2023/07/04 01:47:55;;;;;;;3.70;3.40;;;13.40;99.90;;;;;;485394;245;28460;-80
2023/07/04 01:49:56;;;;;;;4.10;3.63;;;13.40;99.90;;;;;;485403;245;28764;-80
2023/07/04 01:51:58;;;;;;;5.03;4.00;;;13.40;99.90;;;;;;485391;245;28815;-80
2023/07/04 01:53:59;;;;;;;3.63;3.27;;;13.40;99.90;;;;;;485433;245;28374;-79
2023/07/04 01:56:00;;;;;;;4.60;3.50;;;13.40;99.90;;;;;;485406;245;28309;-79
2023/07/04 01:58:01;;;;;;;4.40;4.00;;;13.40;99.90;;;;;;485345;245;28526;-79
2023/07/04 02:00:03;;;;;;;3.80;3.40;;;13.40;99.90;;;;;;485379;245;28704;-80
2023/07/04 02:02:04;;;;;;;3.87;3.50;;;13.30;99.90;;;;;;485367;245;28453;-79
2023/07/04 02:04:05;;;;;;;4.40;3.50;;;13.30;99.90;;;;;;485375;245;28326;-79
2023/07/04 02:06:07;;;;;;;3.70;3.10;;;13.30;99.90;;;;;;485418;245;28877;-79
2023/07/04 02:08:08;;;;;;;4.03;3.63;;;13.30;99.90;;;;;;485401;245;29318;-79
2023/07/04 02:10:09;;;;;;;5.33;3.73;;;13.20;99.90;;;;;;485385;245;28738;-79
2023/07/04 02:12:10;;;;;;;4.20;3.43;;;13.20;99.90;;;;;;485416;245;29023;-80
2023/07/04 02:14:11;;;;;;;4.67;4.03;;;13.20;99.90;;;;;;485425;245;28196;-79
2023/07/04 02:16:13;;;;;;;4.87;4.00;;;13.20;99.90;;;;;;485410;245;28147;-79
2023/07/04 02:18:14;;;;;;;4.10;3.70;;;13.10;99.90;;;;;;485443;245;28767;-80
2023/07/04 02:20:16;;;;;;;10.53;4.90;;;13.10;99.90;;;;;;484279;245;28070;-80
2023/07/04 02:22:16;;;;;;;3.37;3.07;;;13.10;99.90;;;;;;485247;245;28587;-80
2023/07/04 02:24:18;;;;;;;6.13;4.00;;;13.10;99.90;;;;;;485420;244;28217;-79
2023/07/04 02:26:19;;;;;;;8.20;4.10;;;13.00;99.90;;;;;;485477;245;28300;-80
2023/07/04 02:28:20;;;;;;;4.87;3.43;;;13.00;99.90;;;;;;485444;245;28526;-80
2023/07/04 02:30:21;;;;;;;4.57;3.47;;;13.00;99.90;;;;;;485325;245;28180;-79
2023/07/04 02:32:23;;;;;;;4.30;3.30;;;12.90;99.90;;;;;;485429;245;28908;-79
2023/07/04 02:34:24;;;;;;;4.63;3.50;;;12.90;99.90;;;;;;485425;245;29663;-80
2023/07/04 02:36:25;;;;;;;5.17;3.90;;;12.90;99.90;;;;;;485409;245;28502;-80
2023/07/04 02:38:27;;;;;;;6.37;4.40;;;13.00;99.90;;;;;;485403;245;28198;-79
2023/07/04 02:40:28;;;;;;;6.40;3.63;;;13.00;99.90;;;;;;485387;245;28701;-80
2023/07/04 02:42:29;;;;;;;5.50;4.07;;;12.90;99.90;;;;;;485384;245;28485;-79
2023/07/04 02:44:30;;;;;;;6.07;3.80;;;12.90;99.90;;;;;;485389;245;28371;-80
2023/07/04 02:46:31;;;;;;;4.60;3.70;;;12.90;99.90;;;;;;485423;245;28330;-79
2023/07/04 02:48:33;;;;;;;5.10;4.07;;;12.90;99.90;;;;;;485432;245;28163;-79
2023/07/04 02:50:34;;;;;;;6.70;4.20;;;12.90;99.90;;;;;;485375;245;28442;-79
2023/07/04 02:52:35;;;;;;;4.50;3.33;;;12.90;99.90;;;;;;485250;245;28141;-79
2023/07/04 02:54:36;;;;;;;6.63;4.50;;;12.90;99.90;;;;;;485409;245;28197;-79
2023/07/04 02:56:38;;;;;;;5.00;4.03;;;12.90;99.90;;;;;;485382;245;29173;-80
2023/07/04 02:58:39;;;;;;;7.07;3.73;;;12.90;99.90;;;;;;485389;245;28795;-78
2023/07/04 03:00:40;;;;;;;5.30;3.20;;;12.90;99.90;;;;;;485409;245;28549;-80
2023/07/04 03:02:41;;;;;;;7.10;3.37;;;12.90;99.90;;;;;;485253;245;28290;-79
2023/07/04 03:04:43;;;;;;;3.97;3.30;;;12.90;99.90;;;;;;485412;245;28185;-79
2023/07/04 03:06:44;;;;;;;5.83;3.37;;;12.90;99.90;;;;;;485424;245;28304;-79
2023/07/04 03:08:45;;;;;;;3.53;2.90;;;12.90;99.90;;;;;;485411;245;28331;-80
2023/07/04 03:10:46;;;;;;;3.50;3.13;;;12.90;99.90;;;;;;485319;245;28174;-79
2023/07/04 03:12:48;;;;;;;3.90;2.90;;;12.90;99.90;;;;;;485427;245;28103;-80
2023/07/04 03:14:49;;;;;;;5.80;3.03;;;12.90;99.90;;;;;;485405;245;28198;-79
2023/07/04 03:16:50;;;;;;;5.30;3.67;;;12.90;99.90;;;;;;485416;245;28184;-79
2023/07/04 03:18:51;;;;;;;3.27;3.07;;;12.90;99.90;;;;;;485374;245;28111;-79
2023/07/04 03:20:53;;;;;;;4.37;3.07;;;12.90;99.90;;;;;;485382;245;28722;-79
2023/07/04 03:22:54;;;;;;;4.47;3.47;;;12.90;99.90;;;;;;485364;245;28607;-79
2023/07/04 03:24:55;;;;;;;5.07;3.47;;;12.90;99.90;;;;;;485370;245;28899;-80
2023/07/04 03:26:56;;;;;;;5.30;3.77;;;12.90;99.90;;;;;;485399;245;28820;-79
2023/07/04 03:28:58;;;;;;;9.97;4.80;;;12.90;99.90;;;;;;485331;245;28307;-80
2023/07/04 03:30:59;;;;;;;4.63;3.73;;;12.90;99.90;;;;;;485416;245;28267;-80
2023/07/04 03:33:00;;;;;;;5.53;4.73;;;12.90;99.90;;;;;;485375;245;28221;-80
2023/07/04 03:35:01;;;;;;;5.03;4.00;;;12.90;99.90;;;;;;485402;245;28224;-79
2023/07/04 03:37:03;;;;;;;6.50;4.10;;;12.90;99.90;;;;;;485380;245;28446;-79
2023/07/04 03:39:04;;;;;;;5.67;3.57;;;12.90;99.90;;;;;;485440;245;28157;-79
2023/07/04 03:41:05;;;;;;;5.20;3.90;;;12.90;99.90;;;;;;485230;245;28305;-79
2023/07/04 03:43:06;;;;;;;3.73;3.30;;;12.90;99.90;;;;;;485405;245;28339;-79
2023/07/04 03:45:08;;;;;;;4.40;4.00;;;12.90;99.90;;;;;;485388;245;28815;-79
2023/07/04 03:47:09;;;;;;;5.60;3.37;;;13.00;99.90;;;;;;485086;245;28826;-79
2023/07/04 03:49:10;;;;;;;5.73;3.60;;;13.00;99.90;;;;;;485423;245;28965;-79
2023/07/04 03:51:11;;;;;;;3.43;3.10;;;13.00;99.90;;;;;;485378;241;28775;-79
2023/07/04 03:53:13;;;;;;;3.90;3.60;;;13.00;99.90;;;;;;485348;245;28258;-79
2023/07/04 03:55:14;;;;;;;5.17;3.40;;;13.10;99.90;;;;;;485371;245;28319;-79
2023/07/04 03:57:15;;;;;;;3.47;3.17;;;13.10;99.90;;;;;;485372;245;28247;-79
2023/07/04 03:59:16;;;;;;;4.33;3.83;;;13.10;99.90;;;;;;485382;245;28300;-79
2023/07/04 04:01:18;;;;;;;3.67;3.37;;;13.10;99.90;;;;;;485360;245;28184;-79
2023/07/04 04:03:19;;;;;;;4.30;3.43;;;13.10;99.90;;;;;;485384;245;28117;-79
2023/07/04 04:05:20;;;;;;;4.90;3.30;;;13.10;99.90;;;;;;485361;245;28148;-79
2023/07/04 04:07:23;;;;;;;4.00;3.20;;;13.10;99.90;;;;;;485366;245;28327;-79
2023/07/04 04:09:23;;;;;;;4.53;3.60;;;13.20;99.90;;;;;;485323;245;28330;-79
2023/07/04 04:11:24;;;;;;;4.93;3.57;;;13.10;99.90;;;;;;485378;245;28909;-78
2023/07/04 04:13:26;;;;;;;5.03;3.70;;;13.20;99.90;;;;;;485414;245;28854;-78
2023/07/04 04:15:27;;;;;;;5.17;4.00;;;13.20;99.90;;;;;;485375;245;29302;-79
2023/07/04 04:17:28;;;;;;;3.43;3.13;;;13.20;99.90;;;;;;485360;245;28975;-79
2023/07/04 04:19:29;;;;;;;5.10;3.63;;;13.30;99.90;;;;;;485428;245;28446;-79
2023/07/04 04:21:30;;;;;;;6.67;4.20;;;13.30;99.90;;;;;;485378;245;28807;-79
2023/07/04 04:23:31;;;;;;;4.67;4.10;;;13.30;99.90;;;;;;485414;245;28441;-79
2023/07/04 04:25:38;;;;;;;12.77;5.30;;;13.40;99.90;;;;;;485414;245;28722;-79
2023/07/04 04:27:35;;;;;;;8.63;4.37;;;13.40;99.90;;;;;;485124;245;28759;-79
2023/07/04 04:29:35;;;;;;;5.27;4.10;;;13.40;99.90;;;;;;485353;245;28532;-78
2023/07/04 04:31:40;;;;;;;4.30;3.90;;;13.50;99.90;;;;;;485410;245;28513;-79
2023/07/04 04:33:38;;;;;;;5.17;3.87;;;13.60;99.90;;;;;;485098;245;28807;-78
2023/07/04 04:35:40;;;;;;;4.10;3.70;;;13.60;99.90;;;;;;485405;245;28881;-79
2023/07/04 04:37:40;;;;;;;3.87;3.50;;;13.60;99.90;;;;;;485343;245;29219;-79
2023/07/04 04:39:44;;;;;;;5.33;4.30;;;13.70;99.90;;;;;;485344;245;28836;-79
2023/07/04 04:41:43;;;;;;;5.17;4.50;;;13.80;99.90;;;;;;485241;245;29288;-79
2023/07/04 04:43:45;;;;;;;4.80;3.70;;;13.70;99.90;;;;;;485283;245;28767;-79
2023/07/04 04:45:45;;;;;;;6.40;5.07;;;13.70;99.90;;;;;;485345;245;28790;-79
2023/07/04 04:47:52;;;;;;;9.70;4.50;;;13.70;99.90;;;;;;485371;245;28767;-78
2023/07/04 04:49:51;;;;;;;5.70;4.20;;;13.80;99.90;;;;;;485193;245;28788;-78
2023/07/04 04:51:52;;;;;;;4.60;4.20;;;13.90;99.90;;;;;;485376;245;28726;-79
2023/07/04 04:53:53;;;;;;;6.50;3.97;;;13.90;99.90;;;;;;485416;245;28736;-78
2023/07/04 04:55:54;;;;;;;6.87;5.30;;;13.90;99.90;;;;;;485368;245;28753;-79
2023/07/04 04:57:55;;;;;;;5.13;4.60;;;14.00;99.90;;;;;;485421;245;28316;-78
2023/07/04 04:59:59;;;;;;;4.77;4.30;;;14.00;99.90;;;;;;485428;245;28757;-79
2023/07/04 05:01:58;;;;;;;5.27;4.17;;;14.10;99.90;;;;;;485351;245;29080;-79
2023/07/04 05:03:59;;;;;;;4.90;4.40;;;14.00;99.90;;;;;;485419;245;29274;-79
2023/07/04 05:06:01;;;;;;;5.47;4.87;;;14.10;99.90;;;;;;485448;245;29303;-79
2023/07/04 05:08:02;;;;;;;5.77;5.17;;;14.20;99.90;;;;;;485421;245;29231;-79
2023/07/04 05:10:03;;;;;;;7.37;5.07;;;14.20;99.90;;;;;;485382;245;28817;-79
2023/07/04 05:12:04;;;;;;;4.60;4.17;;;14.30;99.90;;;;;;485431;245;28836;-80
2023/07/04 05:14:07;;;;;;;6.13;4.80;;;14.30;99.90;;;;;;485432;245;28775;-78
2023/07/04 05:16:07;;;;;;;5.07;4.33;;;14.30;99.90;;;;;;485358;245;28837;-79
2023/07/04 05:18:08;;;;;;;7.60;4.63;;;14.30;99.90;;;;;;485396;245;28727;-79
2023/07/04 05:20:13;;;;;;;4.80;4.40;;;14.30;99.90;;;;;;485301;241;28745;-80
2023/07/04 05:22:10;;;;;;;5.93;4.57;;;14.40;99.90;;;;;;485224;245;28790;-78
2023/07/04 05:24:12;;;;;;;5.43;4.93;;;14.40;99.90;;;;;;485344;245;28704;-79
2023/07/04 05:26:13;;;;;;;4.93;4.43;;;14.40;99.90;;;;;;485441;245;29202;-79
2023/07/04 05:28:14;;;;;;;5.53;4.53;;;14.40;99.90;;;;;;485355;245;29329;-79
2023/07/04 05:30:15;;;;;;;6.27;4.70;;;14.50;99.90;;;;;;485345;245;29209;-79
2023/07/04 05:32:17;;;;;;;5.10;4.60;;;14.50;99.90;;;;;;485399;245;29129;-79
2023/07/04 05:34:18;;;;;;;6.87;4.77;;;14.60;99.90;;;;;;485408;245;28688;-79
2023/07/04 05:36:19;;;;;;;7.90;5.23;;;14.60;99.90;;;;;;485407;245;28732;-79
2023/07/04 05:38:21;;;;;;;9.37;5.77;;;14.60;99.90;;;;;;485398;244;28693;-79
2023/07/04 05:40:22;;;;;;;6.13;4.80;;;14.60;99.90;;;;;;485389;245;28841;-79
2023/07/04 05:42:25;;;;;;;6.00;4.87;;;14.70;99.90;;;;;;485400;245;28682;-79
2023/07/04 05:44:24;;;;;;;5.90;4.87;;;14.70;99.90;;;;;;485323;245;28747;-79
2023/07/04 05:46:25;;;;;;;6.40;4.83;;;14.80;99.90;;;;;;485425;245;28760;-79
2023/07/04 05:48:27;;;;;;;6.73;5.03;;;14.80;99.90;;;;;;485386;245;28796;-79
2023/07/04 05:50:28;;;;;;;6.73;4.77;;;14.90;99.90;;;;;;485363;245;28804;-79
2023/07/04 05:52:31;;;;;;;6.60;4.70;;;14.90;99.90;;;;;;485374;245;30044;-80
2023/07/04 05:54:30;;;;;;;9.53;5.73;;;14.90;99.90;;;;;;485322;245;29166;-79
2023/07/04 05:56:32;;;;;;;8.60;5.17;;;14.90;99.90;;;;;;485340;245;29301;-78
2023/07/04 05:58:33;;;;;;;7.70;5.10;;;14.90;99.90;;;;;;485411;245;28777;-79
2023/07/04 06:00:34;;;;;;;10.37;5.50;;;15.00;99.90;;;;;;485398;245;28823;-79
2023/07/04 06:02:35;;;;;;;7.60;5.40;;;15.00;99.90;;;;;;485385;245;28710;-80
2023/07/04 06:04:37;;;;;;;8.33;4.80;;;15.00;99.90;;;;;;485352;245;28709;-79
2023/07/04 06:06:38;;;;;;;6.17;4.70;;;15.00;99.90;;;;;;485394;245;28745;-78
2023/07/04 06:08:39;;;;;;;5.10;4.60;;;15.10;99.90;;;;;;485024;245;28783;-79
2023/07/04 06:10:40;;;;;;;9.00;5.27;;;15.10;99.90;;;;;;484921;245;28846;-79
2023/07/04 06:12:42;;;;;;;8.80;5.00;;;15.00;99.90;;;;;;485305;245;28707;-79
2023/07/04 06:14:43;;;;;;;8.80;5.13;;;15.10;99.90;;;;;;485426;245;28771;-79
2023/07/04 06:16:44;;;;;;;7.60;4.77;;;15.10;99.90;;;;;;485449;245;29224;-79
2023/07/04 06:18:45;;;;;;;7.47;4.83;;;15.20;99.90;;;;;;485424;245;29157;-79
2023/07/04 06:20:47;;;;;;;11.87;5.50;;;15.20;99.90;;;;;;485420;244;29200;-79
2023/07/04 06:22:48;;;;;;;7.80;4.97;;;15.20;99.90;;;;;;485452;245;28744;-79
2023/07/04 06:24:50;;;;;;;7.30;4.70;;;15.30;99.90;;;;;;485087;245;28717;-79
2023/07/04 06:26:50;;;;;;;9.57;5.03;;;15.40;99.90;;;;;;485445;245;28779;-79
2023/07/04 06:28:52;;;;;;;12.80;5.33;;;15.40;99.90;;;;;;485470;245;28703;-79
2023/07/04 06:30:53;;;;;;;7.00;4.40;;;15.30;99.90;;;;;;485427;245;28746;-80
2023/07/04 06:32:54;;;;;;;8.03;4.63;;;15.40;99.90;;;;;;485417;245;28757;-79
2023/07/04 06:34:55;;;;;;;9.47;5.00;;;15.40;99.90;;;;;;485439;245;28693;-79
2023/07/04 06:36:57;;;;;;;8.00;4.93;;;15.40;99.90;;;;;;485441;245;28851;-79
2023/07/04 06:38:58;;;;;;;9.97;4.63;;;15.50;99.90;;;;;;485428;245;28781;-79
2023/07/04 06:40:59;;;;;;;7.77;4.40;;;15.50;99.90;;;;;;485371;245;29220;-79
2023/07/04 06:43:00;;;;;;;11.97;5.00;;;15.50;99.90;;;;;;485334;241;30052;-79
2023/07/04 06:45:02;;;;;;;8.43;4.67;;;15.60;99.90;;;;;;485424;245;29282;-79
2023/07/04 06:47:03;;;;;;;9.80;4.57;;;15.60;99.90;;;;;;485362;245;28741;-79
2023/07/04 06:49:05;;;;;;;11.03;4.83;;;15.60;99.90;;;;;;485385;241;28734;-79
2023/07/04 06:51:06;;;;;;;8.07;4.93;;;15.70;99.90;;;;;;485403;241;28764;-79
2023/07/04 06:53:07;;;;;;;6.67;4.00;;;15.70;99.90;;;;;;485408;245;28753;-79
2023/07/04 06:55:08;;;;;;;10.70;4.70;;;15.80;99.90;;;;;;485383;245;28770;-79
2023/07/04 06:57:09;;;;;;;6.30;3.87;;;15.80;99.90;;;;;;485425;245;28839;-79
2023/07/04 06:59:11;;;;;;;6.13;4.40;;;15.90;99.90;;;;;;485398;245;28786;-78
2023/07/04 07:01:12;;;;;;;11.90;4.23;;;15.90;99.90;;;;;;485375;245;28834;-78
2023/07/04 07:03:13;;;;;;;14.03;4.63;;;16.00;99.90;;;;;;485383;245;30105;-79
2023/07/04 07:05:14;;;;;;;9.80;4.40;;;16.00;99.90;;;;;;485323;245;29326;-79
2023/07/04 07:07:16;;;;;;;8.40;4.20;;;16.00;99.90;;;;;;485400;245;29328;-80
2023/07/04 07:09:17;;;;;;;7.73;4.00;;;16.10;99.90;;;;;;485439;245;28689;-79
2023/07/04 07:11:18;;;;;;;8.00;3.83;;;16.10;99.90;;;;;;485337;245;28737;-80
2023/07/04 07:13:19;;;;;;;13.23;4.60;;;16.10;99.90;;;;;;485411;245;28820;-79
2023/07/04 07:15:21;;;;;;;7.93;4.07;;;16.20;99.90;;;;;;485403;245;28795;-78
2023/07/04 07:17:22;;;;;;;8.03;3.77;;;16.20;99.90;;;;;;485374;245;28820;-79
2023/07/04 07:19:24;;;;;;;10.00;4.00;;;16.20;99.90;;;;;;485437;245;28712;-79
2023/07/04 07:21:24;;;;;;;9.40;4.40;;;16.30;99.90;;;;;;485404;245;28760;-79
2023/07/04 07:23:26;;;;;;;6.27;4.30;;;16.30;99.90;;;;;;485353;245;28703;-79
2023/07/04 07:25:27;;;;;;;12.10;4.20;;;16.40;99.90;;;;;;485404;245;29183;-78
2023/07/04 07:27:28;;;;;;;11.27;4.87;;;16.40;99.90;;;;;;485444;245;29277;-79
2023/07/04 07:29:29;;;;;;;12.17;4.87;;;16.50;99.90;;;;;;485419;245;28779;-79
2023/07/04 07:31:31;;;;;;;9.70;4.03;;;16.60;99.90;;;;;;485395;245;28736;-79
2023/07/04 07:33:32;;;;;;;9.33;3.90;;;16.70;99.90;;;;;;485396;245;28780;-79
2023/07/04 07:35:33;;;;;;;8.33;3.87;;;16.70;99.90;;;;;;485372;245;28812;-79
2023/07/04 07:37:34;;;;;;;7.27;4.27;;;16.90;99.90;;;;;;485450;245;28814;-80
2023/07/04 07:39:36;;;;;;;7.93;3.40;;;17.10;99.90;;;;;;485424;245;28717;-79
2023/07/04 07:41:37;;;;;;;6.63;3.90;;;17.30;99.90;;;;;;485358;245;28747;-79
2023/07/04 07:43:38;;;;;;;8.80;3.83;;;17.40;99.90;;;;;;485381;245;28701;-80
2023/07/04 07:45:40;;;;;;;6.97;4.27;;;17.60;99.90;;;;;;485388;245;28756;-79
2023/07/04 07:47:41;;;;;;;9.93;4.40;;;17.70;99.90;;;;;;485445;245;29285;-79
2023/07/04 07:49:42;;;;;;;11.17;4.10;;;17.80;99.90;;;;;;485443;245;29146;-79
2023/07/04 07:51:43;;;;;;;8.37;3.93;;;17.80;99.90;;;;;;485422;245;29522;-79
2023/07/04 07:53:44;;;;;;;7.97;3.63;;;17.80;99.90;;;;;;485416;241;28749;-80
2023/07/04 07:55:46;;;;;;;7.73;3.93;;;18.00;99.90;;;;;;485395;245;28698;-80
2023/07/04 07:57:47;;;;;;;6.80;3.07;;;18.10;99.90;;;;;;485433;245;28822;-78
2023/07/04 07:59:49;;;;;;;12.50;3.90;;;18.10;99.90;;;;;;485454;245;28736;-79
2023/07/04 08:01:51;;;;;;;9.23;4.67;;;18.00;99.90;;;;;;485393;245;28747;-79
2023/07/04 08:03:51;;;;;;;8.03;3.83;;;18.10;99.90;;;;;;485358;245;28781;-79
2023/07/04 08:05:52;;;;;;;6.70;3.97;;;18.20;99.90;;;;;;485369;245;28726;-80
2023/07/04 08:07:53;;;;;;;7.50;3.90;;;18.30;99.90;;;;;;485444;245;28771;-80
2023/07/04 08:09:54;;;;;;;7.87;3.87;;;18.50;99.90;;;;;;485425;244;28751;-79
2023/07/04 08:11:56;;;;;;;5.20;3.53;;;18.60;99.90;;;;;;485399;241;29225;-80
2023/07/04 08:13:57;;;;;;;9.60;3.63;;;18.50;99.90;;;;;;485433;245;29160;-80
2023/07/04 08:15:58;;;;;;;7.70;4.10;;;18.60;99.90;;;;;;485367;245;29240;-80
2023/07/04 08:17:59;;;;;;;5.20;3.50;;;18.70;99.90;;;;;;485412;245;28761;-80
2023/07/04 08:20:01;;;;;;;6.53;3.50;;;18.70;99.90;;;;;;485442;245;28758;-79
2023/07/04 08:22:02;;;;;;;9.13;3.37;;;18.50;99.90;;;;;;485427;245;28751;-79
2023/07/04 08:24:10;;;;;;;8.87;3.60;;;18.50;99.90;;;;;;485408;245;28797;-80
2023/07/04 08:26:04;;;;;;;7.90;3.50;;;18.40;99.90;;;;;;485049;245;28825;-80
2023/07/04 08:28:06;;;;;;;7.77;3.40;;;18.30;99.90;;;;;;485395;245;28783;-79
2023/07/04 08:30:07;;;;;;;12.33;4.50;;;18.30;99.90;;;;;;485409;245;28708;-79
2023/07/04 08:32:10;;;;;;;4.87;3.23;;;18.40;99.90;;;;;;485424;245;28762;-80
2023/07/04 08:34:10;;;;;;;4.90;3.70;;;18.50;99.90;;;;;;485339;245;28721;-79
2023/07/04 08:36:11;;;;;;;4.63;3.30;;;18.60;99.90;;;;;;485418;245;29333;-80
2023/07/04 08:38:12;;;;;;;5.50;3.33;;;18.70;99.90;;;;;;485399;245;29966;-79
2023/07/04 08:40:13;;;;;;;8.00;3.70;;;18.60;99.90;;;;;;485438;245;29254;-79
2023/07/04 08:42:14;;;;;;;4.73;3.13;;;18.60;99.90;;;;;;485480;245;28739;-79
2023/07/04 08:44:16;;;;;;;8.47;3.83;;;18.60;99.90;;;;;;485441;244;28684;-79
2023/07/04 08:46:17;;;;;;;6.10;3.47;;;18.70;99.90;;;;;;485420;245;28765;-79
2023/07/04 08:48:18;;;;;;;5.23;4.30;;;18.70;99.90;;;;;;485460;245;28819;-80
2023/07/04 08:50:19;;;;;;;8.30;3.53;;;18.70;99.90;;;;;;485451;245;28707;-81
2023/07/04 08:52:24;;;;;;;7.83;3.70;;;18.70;99.90;;;;;;485459;245;28748;-80
2023/07/04 08:54:25;;;;;;;6.60;4.27;;;18.80;99.90;;;;;;485388;245;28836;-78
2023/07/04 08:56:26;;;;;;;5.53;3.97;;;18.80;99.90;;;;;;485423;245;28722;-79
2023/07/04 08:58:27;;;;;;;7.50;3.93;;;18.70;99.90;;;;;;485392;245;28731;-79
2023/07/04 09:00:29;;;;;;;8.07;3.60;;;18.70;99.90;;;;;;485419;245;28729;-79
2023/07/04 09:02:30;;;;;;;5.43;3.60;;;18.70;99.90;;;;;;485402;245;29177;-80
2023/07/04 09:04:31;;;;;;;4.60;3.13;;;18.80;99.90;;;;;;485416;245;29283;-79
2023/07/04 09:06:33;;;;;;;4.63;3.60;;;18.90;99.90;;;;;;485423;245;29259;-80
2023/07/04 09:08:34;;;;;;;5.50;3.67;;;18.80;99.90;;;;;;485384;245;29225;-80
2023/07/04 09:10:35;;;;;;;7.53;3.47;;;18.80;99.90;;;;;;485438;245;28770;-80
2023/07/04 09:12:36;;;;;;;6.93;4.37;;;18.70;99.90;;;;;;485413;245;28800;-80
2023/07/04 09:14:37;;;;;;;8.37;3.80;;;18.70;99.90;;;;;;485381;245;28766;-79
2023/07/04 09:16:39;;;;;;;7.10;4.00;;;18.80;99.90;;;;;;485409;245;28778;-79
2023/07/04 09:18:40;;;;;;;6.57;3.50;;;18.80;99.90;;;;;;485411;245;28736;-80
2023/07/04 09:20:41;;;;;;;8.27;4.43;;;18.90;99.90;;;;;;485423;245;28835;-79
2023/07/04 09:22:42;;;;;;;3.93;3.37;;;18.90;99.90;;;;;;485423;245;28725;-80
2023/07/04 09:24:44;;;;;;;7.63;3.90;;;19.00;99.90;;;;;;485377;245;28735;-79
2023/07/04 09:26:45;;;;;;;6.07;3.60;;;19.10;99.90;;;;;;485396;245;29220;-79
2023/07/04 09:28:47;;;;;;;3.87;3.50;;;19.10;99.90;;;;;;485353;245;29283;-79
2023/07/04 09:30:48;;;;;;;6.40;3.70;;;19.10;99.90;;;;;;485448;245;29229;-80
2023/07/04 09:32:49;;;;;;;8.60;4.60;;;19.20;99.90;;;;;;485418;245;30131;-80
2023/07/04 09:34:50;;;;;;;8.60;4.03;;;19.10;99.90;;;;;;482029;245;35968;-79
2023/07/04 09:36:51;;;;;;;6.20;3.97;;;19.20;99.90;;;;;;485422;245;28681;-79
2023/07/04 09:38:53;;;;;;;5.37;3.73;;;19.20;99.90;;;;;;485363;245;28763;-79
2023/07/04 09:40:57;;;;;;;6.83;3.80;;;19.20;99.90;;;;;;485425;245;28802;-79
2023/07/04 09:42:55;;;;;;;3.80;3.30;;;19.30;99.90;;;;;;485158;244;28739;-79
2023/07/04 09:44:56;;;;;;;8.03;4.10;;;19.50;99.90;;;;;;485406;245;28744;-79
2023/07/04 09:46:58;;;;;;;12.87;4.70;;;19.50;99.90;;;;;;485415;245;28776;-80
2023/07/04 09:48:59;;;;;;;6.93;4.37;;;19.50;99.90;;;;;;485399;245;28752;-80
2023/07/04 09:51:00;;;;;;;4.70;3.80;;;19.60;99.90;;;;;;485436;245;29219;-80
2023/07/04 09:53:02;;;;;;;6.93;3.27;;;19.70;99.90;;;;;;485364;245;28696;-80
2023/07/04 09:55:03;;;;;;;4.93;3.20;;;19.80;99.90;;;;;;485392;245;28806;-79
2023/07/04 09:57:04;;;;;;;3.83;2.90;;;19.80;99.90;;;;;;485410;245;28707;-79
2023/07/04 09:59:05;;;;;;;5.63;3.90;;;19.90;99.90;;;;;;485390;245;28806;-79
2023/07/04 10:01:08;;;;;;;9.00;3.77;;;20.00;99.90;;;;;;485422;245;28837;-79
2023/07/04 10:03:08;;;;;;;5.60;3.30;;;19.90;99.90;;;;;;485329;245;28709;-80
2023/07/04 10:05:09;;;;;;;5.80;3.43;;;19.90;99.90;;;;;;485403;245;28734;-79
2023/07/04 10:07:10;;;;;;;6.77;4.37;;;19.90;99.90;;;;;;485369;245;28700;-79
2023/07/04 10:09:12;;;;;;;7.60;3.33;;;19.90;99.90;;;;;;485418;245;29172;-79
2023/07/04 10:11:14;;;;;;;7.60;4.20;;;20.00;99.90;;;;;;485350;245;29223;-80
2023/07/04 10:13:15;;;;;;;6.50;3.77;;;20.10;99.90;;;;;;485360;245;29169;-80
2023/07/04 10:15:15;;;;;;;4.20;3.13;;;20.10;99.90;;;;;;485387;245;29315;-79
2023/07/04 10:17:17;;;;;;;9.67;4.10;;;20.20;99.90;;;;;;485406;245;28803;-79
2023/07/04 10:19:18;;;;;;;9.00;4.07;;;20.40;99.90;;;;;;485387;245;28722;-79
2023/07/04 10:21:19;;;;;;;6.60;3.40;;;20.60;99.90;;;;;;485404;245;28749;-79
2023/07/04 10:23:21;;;;;;;6.10;3.97;;;20.50;99.90;;;;;;485387;245;28782;-80
2023/07/04 10:25:22;;;;;;;7.53;4.10;;;20.30;99.90;;;;;;485362;245;28759;-79
2023/07/04 10:27:23;;;;;;;11.07;4.83;;;20.50;99.90;;;;;;485363;245;28858;-80
2023/07/04 10:29:24;;;;;;;8.10;3.97;;;20.50;99.90;;;;;;485398;245;28736;-79